Time;durP1;ratioP1;P1;durP2;ratioP2;P2;SDS_P1;SDS_P2;PMS_P1;PMS_P2;Temp;Humidity;BMP_temperature;BMP_pressure;BME280_temperature;BME280_humidity;BME280_pressure;Samples;Min_cycle;Max_cycle;Signal;HPM_P1;HPM_P2
2022/03/29 00:02:21;;;;;;;10.73;7.50;;;8.40;99.90;9.10;93956.00;;;;7390427;19;20161;-75
2022/03/29 00:04:50;;;;;;;10.53;7.33;;;8.40;99.90;9.10;93938.00;;;;7393135;19;20117;-75
2022/03/29 00:07:18;;;;;;;12.10;7.80;;;8.40;99.90;9.10;93910.00;;;;7390892;19;20141;-75
2022/03/29 00:09:52;;;;;;;14.50;8.83;;;8.40;99.90;9.10;93916.00;;;;7388934;19;20197;-75
2022/03/29 00:12:19;;;;;;;11.90;8.00;;;8.40;99.90;9.30;93928.00;;;;7392031;19;20587;-75
2022/03/29 00:15:01;;;;;;;16.87;7.63;;;8.40;99.90;9.20;93932.00;;;;7391169;19;20595;-75
2022/03/29 00:17:35;;;;;;;12.23;7.60;;;8.40;99.90;9.20;93905.00;;;;7391151;19;20147;-75
2022/03/29 00:20:03;;;;;;;15.77;7.57;;;8.40;99.90;9.20;93928.00;;;;7391478;19;20155;-75
2022/03/29 00:22:30;;;;;;;14.30;8.00;;;8.40;99.90;9.40;93936.00;;;;7391462;19;20611;-75
2022/03/29 00:25:06;;;;;;;12.13;8.10;;;8.50;99.90;9.40;93920.00;;;;7392606;19;20611;-75
2022/03/29 00:27:35;;;;;;;13.07;6.70;;;8.50;99.90;9.20;93931.00;;;;7391418;19;20591;-75
2022/03/29 00:30:07;;;;;;;15.13;8.17;;;8.50;99.90;9.30;93889.00;;;;7389119;19;20137;-74
2022/03/29 00:32:41;;;;;;;11.43;7.47;;;8.50;99.90;9.20;93877.00;;;;7390114;19;20485;-74
2022/03/29 00:35:09;;;;;;;11.93;7.53;;;8.50;99.90;9.00;93925.00;;;;7389940;19;20137;-74
2022/03/29 00:37:41;;;;;;;13.50;8.23;;;8.40;99.90;8.80;93895.00;;;;7389267;19;20125;-74
2022/03/29 00:40:15;;;;;;;11.17;7.60;;;8.30;99.90;8.60;93915.00;;;;7391005;19;20471;-74
2022/03/29 00:42:57;;;;;;;14.80;7.57;;;8.10;99.90;8.60;93889.00;;;;7389092;19;20612;-75
2022/03/29 00:45:31;;;;;;;14.67;8.43;;;8.00;99.90;9.00;93907.00;;;;7390733;19;20472;-74
2022/03/29 00:47:58;;;;;;;12.33;7.60;;;8.00;99.90;9.00;93901.00;;;;7390617;19;20595;-75
2022/03/29 00:50:25;;;;;;;11.23;7.90;;;8.10;99.90;9.00;93889.00;;;;7389033;19;20584;-75
2022/03/29 00:52:59;;;;;;;12.70;7.30;;;8.20;99.90;8.80;93894.00;;;;7390028;19;20611;-74
2022/03/29 00:55:26;;;;;;;11.33;6.30;;;8.10;99.90;8.90;93868.00;;;;7397895;19;20142;-75
2022/03/29 00:57:54;;;;;;;12.97;7.07;;;8.10;99.90;8.90;93871.00;;;;7396203;19;20320;-74
2022/03/29 01:00:32;;;;;;;17.47;8.67;;;8.10;99.90;9.00;93862.00;;;;7397708;19;20510;-74
2022/03/29 01:03:04;;;;;;;11.30;7.50;;;8.10;99.90;9.00;93861.00;;;;7397093;19;20167;-74
2022/03/29 01:05:41;;;;;;;12.13;7.57;;;8.10;99.90;8.90;93869.00;;;;7396521;19;20133;-74
2022/03/29 01:08:08;;;;;;;11.57;8.20;;;8.10;99.90;8.80;93867.00;;;;7395888;19;20133;-74
2022/03/29 01:10:36;;;;;;;14.80;7.93;;;8.00;99.90;9.00;93874.00;;;;7393708;19;20170;-74
2022/03/29 01:13:10;;;;;;;12.77;7.80;;;8.10;99.90;9.00;93841.00;;;;7399983;19;20174;-75
2022/03/29 01:15:38;;;;;;;10.30;7.60;;;8.10;99.90;8.90;93831.00;;;;7395320;19;20153;-74
2022/03/29 01:18:07;;;;;;;11.57;7.10;;;8.10;99.90;9.00;93852.00;;;;7396604;19;20582;-76
2022/03/29 01:20:45;;;;;;;15.17;7.20;;;8.10;99.90;9.00;93843.00;;;;7398273;19;20115;-77
2022/03/29 01:23:12;;;;;;;13.03;7.10;;;8.10;99.90;9.10;93835.00;;;;7397659;19;20145;-76
2022/03/29 01:25:42;;;;;;;11.60;7.70;;;8.20;99.90;9.10;93828.00;;;;7395356;19;20606;-76
2022/03/29 01:28:20;;;;;;;11.00;7.43;;;8.20;99.90;9.00;93851.00;;;;7395137;19;20129;-76
2022/03/29 01:30:53;;;;;;;13.63;7.73;;;8.20;99.90;8.90;93838.00;;;;7396071;19;20457;-76
2022/03/29 01:33:27;;;;;;;11.13;6.87;;;8.20;99.90;9.00;93822.00;;;;7396451;19;20144;-76
2022/03/29 01:35:55;;;;;;;10.80;7.43;;;8.20;99.90;9.00;93827.00;;;;7394731;19;20133;-76
2022/03/29 01:38:22;;;;;;;10.97;7.23;;;8.20;1.00;9.00;93830.00;;;;7396325;19;20531;-76
2022/03/29 01:41:05;;;;;;;11.70;7.73;;;8.20;99.90;9.20;93838.00;;;;7397426;19;20616;-76
2022/03/29 01:43:39;;;;;;;16.20;7.77;;;8.30;99.90;9.10;93829.00;;;;7394050;19;20148;-76
2022/03/29 01:46:20;;;;;;;11.63;7.83;;;8.40;99.90;9.10;93824.00;;;;7395278;19;20137;-76
2022/03/29 01:48:52;;;;;;;13.87;8.50;;;8.30;99.90;9.30;93802.00;;;;7395051;19;20151;-76
2022/03/29 01:51:26;;;;;;;14.70;8.00;;;8.40;99.90;9.20;93807.00;;;;7394811;19;20147;-76
2022/03/29 01:53:56;;;;;;;11.90;8.33;;;8.40;99.90;9.20;93811.00;;;;7396348;19;20137;-76
2022/03/29 01:56:27;;;;;;;17.70;8.50;;;8.40;99.90;9.30;93801.00;;;;7395168;19;20465;-76
2022/03/29 01:59:07;;;;;;;13.33;7.67;;;8.40;99.90;9.20;93816.00;;;;7395754;19;20132;-76
2022/03/29 02:01:46;;;;;;;14.17;8.50;;;8.40;99.90;9.10;93819.00;;;;7395380;19;20128;-77
2022/03/29 02:04:20;;;;;;;15.83;8.77;;;8.40;99.90;9.20;93803.00;;;;7393866;19;20212;-76
2022/03/29 02:06:47;;;;;;;12.37;8.37;;;8.40;99.90;9.10;93799.00;;;;7392956;19;20765;-76
2022/03/29 02:09:14;;;;;;;17.83;9.03;;;8.30;99.90;9.30;93772.00;;;;7393222;19;20171;-76
2022/03/29 02:11:48;;;;;;;13.30;8.60;;;8.40;99.90;9.50;93784.00;;;;7393863;19;20480;-76
2022/03/29 02:14:15;;;;;;;15.00;8.83;;;8.50;99.90;9.50;93771.00;;;;7394654;19;20137;-76
2022/03/29 02:16:42;;;;;;;15.90;8.27;;;8.60;99.90;9.60;93787.00;;;;7392950;19;20144;-75
2022/03/29 02:19:16;;;;;;;17.27;8.37;;;8.70;99.90;9.90;93787.00;;;;7393922;19;20145;-76
2022/03/29 02:21:43;;;;;;;11.83;7.73;;;8.80;99.90;9.50;93748.00;;;;7394605;19;20611;-76
2022/03/29 02:24:10;;;;;;;18.17;8.70;;;8.80;99.90;9.70;93750.00;;;;7394306;19;20598;-76
2022/03/29 02:26:44;;;;;;;18.33;8.50;;;8.90;99.90;9.60;93784.00;;;;7393401;19;20141;-76
2022/03/29 02:29:11;;;;;;;19.13;8.90;;;8.80;99.90;9.90;93777.00;;;;7393709;19;20738;-76
2022/03/29 02:31:38;;;;;;;13.97;8.90;;;8.90;99.90;9.70;93759.00;;;;7394432;19;20121;-76
2022/03/29 02:34:12;;;;;;;14.73;9.03;;;8.90;99.90;9.70;93750.00;;;;7395010;19;20580;-76
2022/03/29 02:36:39;;;;;;;15.07;9.43;;;8.80;99.90;9.70;93761.00;;;;7392300;19;20133;-76
2022/03/29 02:39:06;;;;;;;12.10;8.83;;;8.80;99.90;9.50;93776.00;;;;7393809;19;20141;-76
2022/03/29 02:41:40;;;;;;;14.93;8.63;;;8.80;99.90;9.30;93767.00;;;;7395314;19;20121;-76
2022/03/29 02:44:13;;;;;;;12.30;8.83;;;8.70;99.90;9.40;93745.00;;;;7391326;19;20175;-76
2022/03/29 02:46:47;;;;;;;12.83;8.83;;;8.60;99.90;9.40;93764.00;;;;7392942;19;20160;-76
2022/03/29 02:49:14;;;;;;;12.57;8.50;;;8.60;99.90;9.50;93739.00;;;;7392810;19;20144;-77
2022/03/29 02:51:41;;;;;;;12.57;7.83;;;8.60;99.90;9.20;93758.00;;;;7394397;19;20469;-76
2022/03/29 02:54:15;;;;;;;15.67;8.27;;;8.60;99.90;9.00;93753.00;;;;7392577;19;20128;-76
2022/03/29 02:56:42;;;;;;;12.67;8.43;;;8.50;99.90;9.20;93761.00;;;;7392470;19;20174;-75
2022/03/29 02:59:09;;;;;;;13.60;8.27;;;8.40;99.90;9.10;93742.00;;;;7393180;19;20164;-74
2022/03/29 03:01:43;;;;;;;20.10;8.43;;;8.40;99.90;9.00;93751.00;;;;7391481;19;20161;-74
2022/03/29 03:04:13;;;;;;;14.90;8.57;;;8.30;99.90;8.90;93743.00;;;;7388675;19;20610;-75
2022/03/29 03:06:41;;;;;;;13.63;7.70;;;8.30;99.90;9.00;93701.00;;;;7384448;19;20128;-74
2022/03/29 03:09:15;;;;;;;13.13;8.10;;;8.30;99.90;9.10;93738.00;;;;7393335;19;20199;-75
2022/03/29 03:11:42;;;;;;;12.23;8.60;;;8.30;99.90;9.10;93734.00;;;;7392008;19;20136;-74
2022/03/29 03:14:09;;;;;;;15.00;8.07;;;8.30;99.90;9.00;93678.00;;;;7392030;19;20132;-75
2022/03/29 03:16:44;;;;;;;10.53;7.50;;;8.20;99.90;8.90;93723.00;;;;7391487;19;20125;-75
2022/03/29 03:19:31;;;;;;;10.67;7.57;;;8.20;99.90;8.90;93738.00;;;;7393846;19;20225;-74
2022/03/29 03:22:05;;;;;;;13.50;7.87;;;8.20;99.90;9.00;93701.00;;;;7393211;19;20172;-74
2022/03/29 03:24:32;;;;;;;16.17;8.17;;;8.10;99.90;9.10;93715.00;;;;7391734;19;20124;-75
2022/03/29 03:26:59;;;;;;;14.63;8.57;;;8.20;99.90;8.80;93726.00;;;;7392727;19;20599;-75
2022/03/29 03:29:33;;;;;;;15.63;8.70;;;8.10;99.90;9.20;93724.00;;;;7391899;19;20631;-75
2022/03/29 03:32:00;;;;;;;11.93;8.10;;;8.20;99.90;8.80;93669.00;;;;7392842;19;20156;-75
2022/03/29 03:34:27;;;;;;;17.37;8.50;;;8.20;99.90;8.60;93717.00;;;;7393123;19;20210;-74
2022/03/29 03:37:03;;;;;;;13.83;8.50;;;8.10;99.90;8.80;93694.00;;;;7391704;19;20136;-75
2022/03/29 03:39:34;;;;;;;16.67;9.10;;;8.00;99.90;9.00;93698.00;;;;7390558;19;20133;-75
2022/03/29 03:42:15;;;;;;;13.47;8.67;;;8.10;99.90;9.00;93715.00;;;;7392002;19;20117;-75
2022/03/29 03:44:50;;;;;;;15.80;9.40;;;8.20;99.90;9.00;93665.00;;;;7389647;19;20171;-75
2022/03/29 03:47:34;;;;;;;17.47;9.07;;;8.20;99.90;9.20;93700.00;;;;7391652;19;20168;-74
2022/03/29 03:50:03;;;;;;;13.90;9.07;;;8.30;99.90;9.10;93701.00;;;;7391558;19;20146;-74
2022/03/29 03:52:37;;;;;;;16.83;9.73;;;8.30;99.90;9.10;93651.00;;;;7391614;19;20513;-74
2022/03/29 03:55:05;;;;;;;16.10;9.43;;;8.30;99.90;8.80;93664.00;;;;7391087;19;20133;-75
2022/03/29 03:57:33;;;;;;;18.17;8.57;;;8.20;99.90;8.80;93697.00;;;;7390719;19;20162;-75
2022/03/29 04:00:07;;;;;;;13.27;8.63;;;8.20;99.90;9.10;93694.00;;;;7390991;19;20159;-75
2022/03/29 04:02:35;;;;;;;14.63;9.37;;;8.20;99.90;9.10;93667.00;;;;7392285;19;20135;-75
2022/03/29 04:05:02;;;;;;;12.63;8.20;;;8.20;99.90;9.30;93664.00;;;;7392469;19;20125;-75
2022/03/29 04:07:36;;;;;;;18.33;9.50;;;8.30;99.90;9.20;93655.00;;;;7392825;19;20467;-75
2022/03/29 04:10:06;;;;;;;14.67;9.07;;;8.40;99.90;9.40;93648.00;;;;7388632;19;20181;-75
2022/03/29 04:12:34;;;;;;;11.93;8.40;;;8.50;99.90;9.30;93675.00;;;;7390890;19;20578;-75
2022/03/29 04:15:09;;;;;;;12.20;8.87;;;8.50;99.90;9.50;93639.00;;;;7391183;19;20132;-74
2022/03/29 04:17:36;;;;;;;13.93;9.10;;;8.60;99.90;9.70;93663.00;;;;7390533;19;20120;-74
2022/03/29 04:20:06;;;;;;;15.97;9.67;;;8.70;99.90;9.60;93653.00;;;;7389937;19;20460;-74
2022/03/29 04:22:40;;;;;;;13.53;8.83;;;8.70;99.90;9.50;93641.00;;;;7391631;19;20129;-75
2022/03/29 04:25:08;;;;;;;16.87;9.83;;;8.70;99.90;9.30;93659.00;;;;7391143;19;20177;-75
2022/03/29 04:27:36;;;;;;;13.90;9.03;;;8.70;99.90;9.40;93675.00;;;;7389019;19;20133;-74
2022/03/29 04:30:12;;;;;;;16.20;9.10;;;8.70;99.90;9.40;93638.00;;;;7397917;19;20565;-75
2022/03/29 04:32:39;;;;;;;13.27;8.30;;;8.60;99.90;9.30;93655.00;;;;7398565;19;20140;-74
2022/03/29 04:35:07;;;;;;;14.10;9.17;;;8.60;99.90;9.40;93637.00;;;;7397700;19;20141;-74
2022/03/29 04:37:43;;;;;;;15.63;8.90;;;8.60;99.90;9.50;93644.00;;;;7387678;19;20532;-74
2022/03/29 04:40:15;;;;;;;16.37;8.77;;;8.60;99.90;9.30;93627.00;;;;7396123;19;20124;-74
2022/03/29 04:43:03;;;;;;;14.23;9.23;;;8.60;99.90;9.30;93647.00;;;;7399576;19;20137;-74
2022/03/29 04:45:39;;;;;;;19.40;9.07;;;8.50;99.90;9.00;93653.00;;;;7399176;19;20160;-74
2022/03/29 04:48:14;;;;;;;13.17;8.50;;;8.40;99.90;9.30;93652.00;;;;7398972;19;20491;-74
2022/03/29 04:50:41;;;;;;;14.13;8.63;;;8.40;99.90;9.40;93652.00;;;;7396707;19;20129;-74
2022/03/29 04:53:09;;;;;;;13.53;9.03;;;8.50;99.90;9.50;93650.00;;;;7398266;19;20125;-75
2022/03/29 04:55:44;;;;;;;13.77;8.63;;;8.60;99.90;9.50;93633.00;;;;7396834;19;20151;-74
2022/03/29 04:58:12;;;;;;;13.17;8.40;;;8.70;99.90;9.30;93644.00;;;;7395004;19;20125;-74
2022/03/29 05:00:40;;;;;;;14.10;9.23;;;8.70;99.90;9.20;93622.00;;;;7397352;19;20123;-73
2022/03/29 05:03:14;;;;;;;16.83;9.07;;;8.50;99.90;9.30;93642.00;;;;7396848;19;20163;-73
2022/03/29 05:05:41;;;;;;;13.50;7.77;;;8.60;99.90;9.30;93611.00;;;;7396537;19;20139;-74
2022/03/29 05:08:09;;;;;;;15.33;9.07;;;8.60;99.90;9.30;93621.00;;;;7397090;19;20152;-74
2022/03/29 05:10:43;;;;;;;13.10;8.60;;;8.60;99.90;9.20;93619.00;;;;7396721;19;20141;-75
2022/03/29 05:13:11;;;;;;;17.40;8.77;;;8.50;99.90;9.20;93636.00;;;;7397369;19;20129;-75
2022/03/29 05:15:42;;;;;;;11.77;8.57;;;8.50;99.90;9.20;93620.00;;;;7398112;19;20160;-75
2022/03/29 05:18:17;;;;;;;12.93;8.50;;;8.50;99.90;9.20;93631.00;;;;7396841;19;20181;-74
2022/03/29 05:20:45;;;;;;;13.43;8.33;;;8.50;99.90;9.10;93633.00;;;;7402232;19;20495;-73
2022/03/29 05:23:16;;;;;;;16.57;9.00;;;8.40;99.90;9.10;93643.00;;;;7398072;19;20121;-74
2022/03/29 05:25:50;;;;;;;12.00;8.07;;;8.30;99.90;9.20;93607.00;;;;7396756;19;20164;-74
2022/03/29 05:28:19;;;;;;;13.70;7.87;;;8.30;99.90;9.40;93624.00;;;;7398829;19;20610;-74
2022/03/29 05:30:49;;;;;;;12.80;8.97;;;8.50;99.90;9.40;93613.00;;;;7400758;19;20137;-73
2022/03/29 05:33:23;;;;;;;13.30;8.80;;;8.60;99.90;9.40;93633.00;;;;7401719;19;20602;-73
2022/03/29 05:35:52;;;;;;;11.47;7.73;;;8.60;99.90;9.30;93630.00;;;;7400568;19;20149;-73
2022/03/29 05:39:05;;;;;;;13.23;8.70;;;8.60;99.90;9.40;93623.00;;;;7395548;19;20145;-74
2022/03/29 05:41:47;;;;;;;13.97;8.13;;;8.50;99.90;9.60;93598.00;;;;7398481;19;20611;-74
2022/03/29 05:44:21;;;;;;;10.33;7.40;;;8.60;99.90;9.80;93620.00;;;;7397718;19;20601;-74
2022/03/29 05:49:41;;;;;;;13.20;8.53;;;8.90;99.90;9.90;93627.00;;;;7399333;19;20794;-73
2022/03/29 05:52:15;;;;;;;11.03;8.50;;;9.00;99.90;10.10;93614.00;;;;7398429;19;20470;-74
2022/03/29 05:54:45;;;;;;;16.43;8.67;;;9.10;99.90;10.10;93620.00;;;;7399004;19;20146;-73
2022/03/29 05:57:15;;;;;;;12.33;7.77;;;9.20;99.90;10.10;93619.00;;;;7396863;19;20144;-75
2022/03/29 05:59:49;;;;;;;12.50;8.27;;;9.20;99.90;10.10;93622.00;;;;7397126;19;20137;-74
2022/03/29 06:02:16;;;;;;;12.07;8.53;;;9.30;99.90;10.40;93637.00;;;;7397215;19;20630;-75
2022/03/29 06:04:45;;;;;;;14.13;8.70;;;9.40;99.90;10.40;93630.00;;;;7397329;19;20486;-74
2022/03/29 06:07:20;;;;;;;10.87;8.00;;;9.40;99.90;10.40;93612.00;;;;7398665;19;20471;-75
2022/03/29 06:09:47;;;;;;;12.50;8.13;;;9.50;99.90;10.40;93594.00;;;;7395363;19;20169;-74
2022/03/29 06:12:21;;;;;;;10.23;7.77;;;9.50;99.90;10.50;93606.00;;;;7398834;19;20132;-72
2022/03/29 06:14:55;;;;;;;14.80;8.87;;;9.60;99.90;10.60;93599.00;;;;7397041;19;20144;-74
2022/03/29 06:17:23;;;;;;;11.70;8.10;;;9.60;99.90;10.80;93639.00;;;;7395683;19;20145;-74
2022/03/29 06:19:50;;;;;;;12.73;7.70;;;9.70;99.90;10.80;93640.00;;;;7395417;19;20145;-72
2022/03/29 06:22:24;;;;;;;10.93;7.83;;;9.80;99.90;10.90;93615.00;;;;7395753;19;20145;-74
2022/03/29 06:24:54;;;;;;;16.53;8.57;;;9.80;99.90;10.80;93641.00;;;;7396495;19;20164;-73
2022/03/29 06:27:21;;;;;;;10.87;7.77;;;9.90;99.90;10.90;93641.00;;;;7396023;19;20557;-74
2022/03/29 06:29:57;;;;;;;13.93;8.10;;;10.00;99.90;10.80;93637.00;;;;7395586;19;20148;-73
2022/03/29 06:32:24;;;;;;;13.07;7.73;;;10.00;99.90;10.90;93617.00;;;;7395385;19;20482;-74
2022/03/29 06:34:52;;;;;;;12.40;8.07;;;10.00;99.90;11.00;93632.00;;;;7394863;19;20185;-74
2022/03/29 06:37:26;;;;;;;10.77;7.83;;;10.10;99.90;11.10;93613.00;;;;7395651;19;20778;-74
2022/03/29 06:39:54;;;;;;;11.73;8.07;;;10.10;99.90;11.00;93638.00;;;;7395426;19;20500;-73
2022/03/29 06:42:21;;;;;;;12.33;8.20;;;10.10;99.90;11.30;93616.00;;;;7395772;19;20129;-75
2022/03/29 06:45:02;;;;;;;11.93;7.43;;;10.10;99.90;11.20;93644.00;;;;7393339;19;20144;-73
2022/03/29 06:47:30;;;;;;;12.40;7.63;;;10.10;99.90;11.00;93633.00;;;;7396028;19;20170;-74
2022/03/29 06:50:06;;;;;;;13.30;8.23;;;10.20;99.90;11.20;93644.00;;;;7395191;19;20464;-74
2022/03/29 06:52:38;;;;;;;9.90;7.37;;;10.20;99.90;11.30;93632.00;;;;7393446;19;20623;-74
2022/03/29 06:55:16;;;;;;;9.40;7.30;;;10.20;99.90;11.30;93640.00;;;;7393861;19;20141;-75
2022/03/29 06:57:45;;;;;;;11.33;7.50;;;10.30;99.90;11.40;93631.00;;;;7394935;19;20133;-75
2022/03/29 07:00:20;;;;;;;9.73;7.33;;;10.30;99.90;11.40;93617.00;;;;7398363;19;20128;-74
2022/03/29 07:02:49;;;;;;;10.93;7.80;;;10.40;99.90;11.50;93590.00;;;;7394732;19;20140;-73
2022/03/29 07:05:19;;;;;;;11.70;7.47;;;10.60;99.90;11.70;93631.00;;;;7394704;19;20137;-74
2022/03/29 07:07:53;;;;;;;12.60;7.38;;;10.70;99.90;11.90;93630.00;;;;7395219;19;20161;-73
2022/03/29 07:13:14;;;;;;;11.32;7.80;;;11.00;99.90;12.20;93614.00;;;;7396400;19;20198;-75
2022/03/29 07:15:42;;;;;;;12.13;7.93;;;11.20;99.90;12.40;93624.00;;;;7394898;19;20140;-74
2022/03/29 07:18:10;;;;;;;12.43;7.40;;;11.40;99.90;12.80;93622.00;;;;7388882;19;20137;-74
2022/03/29 07:20:44;;;;;;;10.25;7.63;;;11.40;99.90;13.00;93631.00;;;;7393295;19;20616;-74
2022/03/29 07:23:12;;;;;;;11.40;7.95;;;11.50;99.90;13.10;93628.00;;;;7394750;19;20141;-75
2022/03/29 07:25:56;;;;;;;10.07;7.25;;;11.70;99.90;13.40;93604.00;;;;7395005;19;20159;-74
2022/03/29 07:28:46;;;;;;;11.50;8.00;;;11.90;99.90;13.60;93634.00;;;;7393666;19;20158;-73
2022/03/29 07:31:13;;;;;;;11.93;7.70;;;12.20;99.90;13.70;93615.00;;;;7392915;19;20124;-72
2022/03/29 07:33:47;;;;;;;12.77;7.57;;;12.40;99.90;13.90;93622.00;;;;7393264;19;20141;-73
2022/03/29 07:36:15;;;;;;;12.88;8.32;;;12.60;99.90;14.50;93597.00;;;;7392317;19;20156;-73
2022/03/29 07:38:42;;;;;;;13.90;7.72;;;12.80;99.90;14.40;93624.00;;;;7394992;19;20132;-72
2022/03/29 07:41:17;;;;;;;9.65;7.43;;;13.10;99.90;14.80;93625.00;;;;7393941;19;20144;-74
2022/03/29 07:43:58;;;;;;;10.95;7.57;;;13.40;99.90;14.80;93629.00;;;;7392760;19;20216;-74
2022/03/29 07:46:32;;;;;;;11.00;7.60;;;13.40;99.90;15.10;93625.00;;;;7392799;19;20622;-73
2022/03/29 07:49:04;;;;;;;18.60;8.13;;;13.50;99.90;15.10;93626.00;;;;7394198;19;20176;-74
2022/03/29 07:51:51;;;;;;;9.48;7.45;;;13.40;99.90;14.80;93631.00;;;;7392817;19;20204;-73
2022/03/29 07:54:25;;;;;;;10.82;7.43;;;13.50;99.90;14.80;93618.00;;;;7394942;19;20201;-74
2022/03/29 07:56:53;;;;;;;11.82;7.32;;;13.20;99.90;14.70;93618.00;;;;7394999;19;20158;-73
2022/03/29 07:59:21;;;;;;;9.75;7.28;;;13.30;99.90;14.80;93636.00;;;;7394286;19;20161;-73
2022/03/29 08:01:55;;;;;;;9.57;7.32;;;13.10;99.90;14.70;93615.00;;;;7393099;19;20607;-73
2022/03/29 08:04:24;;;;;;;10.05;6.43;;;13.00;99.90;14.50;93637.00;;;;7391655;19;20144;-74
2022/03/29 08:06:52;;;;;;;14.85;7.47;;;13.30;99.90;15.00;93621.00;;;;7393123;19;20460;-73
2022/03/29 08:09:27;;;;;;;8.90;6.97;;;13.30;99.90;14.70;93621.00;;;;7392334;19;20160;-73
2022/03/29 08:12:01;;;;;;;9.13;7.00;;;13.50;99.90;15.20;93622.00;;;;7396982;19;20240;-73
2022/03/29 08:14:35;;;;;;;8.02;6.82;;;13.70;99.90;15.20;93628.00;;;;7391498;19;20608;-74
2022/03/29 08:17:03;;;;;;;10.55;7.18;;;14.10;99.90;15.40;93636.00;;;;7390914;19;20140;-74
2022/03/29 08:19:31;;;;;;;10.68;6.90;;;14.20;99.90;15.00;93631.00;;;;7388545;19;20133;-73
2022/03/29 08:22:05;;;;;;;9.55;6.97;;;14.40;99.90;15.10;93636.00;;;;7389080;19;20161;-75
2022/03/29 08:24:34;;;;;;;10.60;7.07;;;14.60;99.90;15.60;93639.00;;;;7389380;19;20176;-74
2022/03/29 08:27:02;;;;;;;10.85;6.85;;;14.70;99.90;15.70;93632.00;;;;7392103;19;20463;-74
2022/03/29 08:29:38;;;;;;;9.73;6.72;;;14.40;99.90;15.70;93628.00;;;;7390152;19;20543;-74
2022/03/29 08:32:06;;;;;;;9.13;6.47;;;14.20;99.90;15.20;93648.00;;;;7391105;19;20586;-73
2022/03/29 08:34:34;;;;;;;9.48;7.10;;;14.40;99.90;15.50;93634.00;;;;7393228;19;20151;-75
2022/03/29 08:37:08;;;;;;;10.68;6.57;;;14.50;99.90;16.10;93630.00;;;;7388772;19;20506;-73
2022/03/29 08:39:37;;;;;;;9.98;7.03;;;14.70;99.90;16.50;93635.00;;;;7388366;19;20148;-74
2022/03/29 08:42:10;;;;;;;8.32;6.18;;;14.80;99.90;16.30;93618.00;;;;7391349;19;20129;-73
2022/03/29 08:44:51;;;;;;;11.88;7.68;;;15.00;99.90;16.20;93639.00;;;;7388369;19;20159;-74
2022/03/29 08:47:18;;;;;;;10.55;7.85;;;14.90;99.90;15.80;93638.00;;;;7390401;19;20546;-74
2022/03/29 08:49:52;;;;;;;9.98;7.07;;;15.10;99.90;15.50;93633.00;;;;7391491;19;20674;-75
2022/03/29 08:52:20;;;;;;;14.13;7.72;;;15.10;99.90;15.40;93629.00;;;;7391510;19;20140;-76
2022/03/29 08:54:49;;;;;;;15.43;8.00;;;15.10;99.90;15.80;93609.00;;;;7390271;19;20147;-74
2022/03/29 08:57:24;;;;;;;9.80;7.40;;;14.90;99.90;16.10;93632.00;;;;7386279;19;20629;-74
2022/03/29 08:59:51;;;;;;;10.88;6.78;;;14.70;99.90;16.40;93632.00;;;;7391680;19;20142;-75
2022/03/29 09:02:19;;;;;;;9.38;7.07;;;14.80;99.90;15.90;93624.00;;;;7392939;19;20464;-73
2022/03/29 09:05:15;;;;;;;10.80;7.07;;;14.80;99.90;15.70;93622.00;;;;7390232;19;20567;-74
2022/03/29 09:08:02;;;;;;;11.38;7.65;;;15.00;99.90;15.50;93639.00;;;;7390626;19;20125;-75
2022/03/29 09:10:46;;;;;;;14.13;7.90;;;15.20;99.90;15.50;93632.00;;;;7391221;19;20137;-75
2022/03/29 09:13:21;;;;;;;9.77;7.70;;;15.10;98.30;15.60;93634.00;;;;7393025;19;20226;-74
2022/03/29 09:15:59;;;;;;;12.90;6.95;;;15.20;99.90;15.50;93599.00;;;;7399570;19;20137;-73
2022/03/29 09:18:31;;;;;;;12.80;6.88;;;15.20;99.90;16.00;93630.00;;;;7396751;19;20715;-74
2022/03/29 09:21:15;;;;;;;10.80;6.88;;;15.00;99.90;16.10;93623.00;;;;7401417;19;20164;-72
2022/03/29 09:24:04;;;;;;;13.02;7.43;;;15.00;99.90;16.40;93615.00;;;;7396942;19;20579;-74
2022/03/29 09:26:54;;;;;;;13.98;7.45;;;14.80;99.90;15.90;93621.00;;;;7395760;19;20176;-74
2022/03/29 09:29:24;;;;;;;11.73;7.85;;;14.50;99.90;16.20;93600.00;;;;7394672;19;20141;-73
2022/03/29 09:32:14;;;;;;;13.05;6.70;;;14.60;99.90;15.80;93604.00;;;;7396275;19;20216;-72
2022/03/29 09:34:42;;;;;;;9.13;7.53;;;14.60;99.90;16.10;93613.00;;;;7393729;19;20147;-74
2022/03/29 09:37:36;;;;;;;10.52;7.30;;;14.80;99.90;16.20;93613.00;;;;7394096;19;20132;-74
2022/03/29 09:40:04;;;;;;;10.75;7.63;;;14.80;99.90;16.30;93611.00;;;;7397763;19;20129;-72
2022/03/29 09:42:40;;;;;;;14.02;7.63;;;14.70;99.90;16.10;93608.00;;;;7398641;19;20129;-74
2022/03/29 09:45:16;;;;;;;12.65;7.50;;;14.90;99.90;16.60;93597.00;;;;7396442;19;20829;-73
2022/03/29 09:47:53;;;;;;;7.35;6.60;;;15.10;99.90;16.70;93603.00;;;;7399438;19;20614;-72
2022/03/29 09:50:21;;;;;;;10.98;7.28;;;15.30;99.90;17.00;93597.00;;;;7397174;19;20500;-73
2022/03/29 09:52:48;;;;;;;7.85;6.57;;;15.70;99.90;17.40;93597.00;;;;7397536;19;20137;-73
2022/03/29 09:55:22;;;;;;;12.90;7.40;;;15.90;99.90;17.70;93584.00;;;;7397066;19;20141;-73
2022/03/29 09:57:53;;;;;;;9.35;6.75;;;16.40;70.00;17.90;93576.00;;;;7398584;19;20726;-73
2022/03/29 10:00:29;;;;;;;8.25;6.57;;;16.70;62.20;18.50;93575.00;;;;7398589;19;20121;-74
2022/03/29 10:03:09;;;;;;;13.40;7.43;;;17.00;66.80;18.60;93583.00;;;;7397534;19;20141;-73
2022/03/29 10:05:40;;;;;;;14.05;7.45;;;17.10;78.50;18.20;93579.00;;;;7397061;19;20138;-74
2022/03/29 10:11:07;;;;;;;12.38;7.90;;;17.10;99.90;18.00;93567.00;;;;7398444;19;20153;-74
2022/03/29 10:13:41;;;;;;;11.45;8.07;;;16.80;99.90;17.70;93570.00;;;;7398287;19;20650;-72
2022/03/29 10:16:16;;;;;;;11.60;8.00;;;16.60;99.90;17.60;93584.00;;;;7397982;19;20201;-74
2022/03/29 10:18:51;;;;;;;12.57;7.68;;;16.50;99.90;17.40;93575.00;;;;7397639;19;20138;-74
2022/03/29 10:21:18;;;;;;;14.35;8.73;;;16.50;99.90;17.90;93574.00;;;;7396994;19;20535;-74
2022/03/29 10:23:49;;;;;;;13.95;8.40;;;16.70;99.90;18.00;93576.00;;;;7396484;19;20140;-74
2022/03/29 10:26:26;;;;;;;14.50;7.78;;;17.00;99.90;18.10;93560.00;;;;7394583;19;20136;-73
2022/03/29 10:28:54;;;;;;;15.80;7.45;;;17.10;99.90;18.10;93551.00;;;;7397233;19;20196;-74
2022/03/29 10:31:31;;;;;;;12.07;7.35;;;17.20;99.90;18.20;93569.00;;;;7396152;19;20156;-73
2022/03/29 10:34:21;;;;;;;10.43;8.05;;;17.10;99.90;18.60;93552.00;;;;7396431;19;20164;-72
2022/03/29 10:37:08;;;;;;;9.15;7.43;;;17.30;99.90;19.60;93561.00;;;;7397572;19;20124;-74
2022/03/29 10:39:56;;;;;;;13.30;7.82;;;17.90;99.90;20.70;93543.00;;;;7394164;19;20137;-74
2022/03/29 10:42:45;;;;;;;10.68;7.57;;;18.70;56.80;20.70;93524.00;;;;7396193;19;20216;-73
2022/03/29 10:45:29;;;;;;;8.55;7.28;;;19.20;62.40;20.90;93539.00;;;;7396814;19;20180;-74
2022/03/29 10:47:59;;;;;;;13.23;7.43;;;19.30;62.20;21.20;93537.00;;;;7396386;19;20132;-74
2022/03/29 10:50:58;;;;;;;12.43;7.70;;;19.40;59.80;21.30;93529.00;;;;7398309;19;20503;-74
2022/03/29 10:53:31;;;;;;;11.10;8.10;;;19.50;40.40;21.20;93523.00;;;;7397675;19;20132;-72
2022/03/29 10:56:17;;;;;;;10.88;7.45;;;19.70;33.10;21.90;93516.00;;;;7397328;19;20469;-73
2022/03/29 10:59:03;;;;;;;10.20;7.32;;;20.00;15.60;22.10;93519.00;;;;7396615;19;20192;-74
2022/03/29 11:01:40;;;;;;;12.77;6.97;;;20.00;20.50;21.50;93501.00;;;;7395616;19;20479;-73
2022/03/29 11:04:21;;;;;;;10.25;7.50;;;20.20;99.90;20.90;93513.00;;;;7395207;19;20133;-71
2022/03/29 11:07:14;;;;;;;13.02;8.02;;;19.30;13.00;20.00;93510.00;;;;7394469;19;20602;-73
2022/03/29 11:09:44;;;;;;;10.95;7.43;;;18.60;22.00;19.70;93495.00;;;;7393595;19;20183;-73
2022/03/29 11:12:38;;;;;;;10.05;7.35;;;18.70;24.50;20.40;93505.00;;;;7394772;19;20136;-74
2022/03/29 11:15:24;;;;;;;11.43;8.05;;;18.60;48.10;20.70;93503.00;;;;7394124;19;20147;-74
2022/03/29 11:17:58;;;;;;;11.93;7.65;;;18.80;46.80;20.90;93488.00;;;;7393950;19;20137;-75
2022/03/29 11:20:33;;;;;;;11.80;8.50;;;19.10;29.60;21.00;93491.00;;;;7393841;19;20121;-74
2022/03/29 11:23:11;;;;;;;12.98;7.80;;;19.30;26.50;20.70;93479.00;;;;7389959;19;20618;-73
2022/03/29 11:25:45;;;;;;;7.72;6.80;;;19.40;14.20;20.10;93471.00;;;;7395257;19;20137;-74
2022/03/29 11:28:22;;;;;;;9.30;7.75;;;19.30;19.40;20.30;93485.00;;;;7396030;19;20144;-74
2022/03/29 11:30:55;;;;;;;7.72;6.90;;;19.60;10.30;20.10;93487.00;;;;7394644;19;20493;-74